sensor_id;sensor_type;location;lat;lon;timestamp;temperature;humidity
29571;DHT22;16814;52.118;11.436;2023-02-27T00:01:17;-1.30;99.90
29571;DHT22;16814;52.118;11.436;2023-02-27T00:03:44;-1.20;99.90
29571;DHT22;16814;52.118;11.436;2023-02-27T00:06:11;-1.10;99.90
29571;DHT22;16814;52.118;11.436;2023-02-27T00:08:38;-1.10;99.90
29571;DHT22;16814;52.118;11.436;2023-02-27T00:11:05;-1.10;99.90
29571;DHT22;16814;52.118;11.436;2023-02-27T00:13:32;-1.10;99.90
29571;DHT22;16814;52.118;11.436;2023-02-27T00:15:59;-1.20;99.90
29571;DHT22;16814;52.118;11.436;2023-02-27T00:18:28;-1.30;99.90
29571;DHT22;16814;52.118;11.436;2023-02-27T00:20:57;-1.40;99.90
29571;DHT22;16814;52.118;11.436;2023-02-27T00:23:23;-1.30;99.90
29571;DHT22;16814;52.118;11.436;2023-02-27T00:25:51;-1.30;99.90
29571;DHT22;16814;52.118;11.436;2023-02-27T00:28:20;-1.30;99.90
29571;DHT22;16814;52.118;11.436;2023-02-27T00:30:48;-1.20;99.90
29571;DHT22;16814;52.118;11.436;2023-02-27T00:33:15;-1.30;99.90
29571;DHT22;16814;52.118;11.436;2023-02-27T00:35:42;-1.20;99.90
29571;DHT22;16814;52.118;11.436;2023-02-27T00:38:09;-1.20;99.90
29571;DHT22;16814;52.118;11.436;2023-02-27T00:40:35;-1.10;99.90
29571;DHT22;16814;52.118;11.436;2023-02-27T00:43:03;-1.20;99.90
29571;DHT22;16814;52.118;11.436;2023-02-27T00:45:28;-1.10;99.90
29571;DHT22;16814;52.118;11.436;2023-02-27T00:47:55;-1.00;99.90
29571;DHT22;16814;52.118;11.436;2023-02-27T00:50:21;-0.90;99.90
29571;DHT22;16814;52.118;11.436;2023-02-27T00:52:46;-0.90;99.90
29571;DHT22;16814;52.118;11.436;2023-02-27T00:55:12;-0.90;99.90
29571;DHT22;16814;52.118;11.436;2023-02-27T00:57:37;-0.90;99.90
29571;DHT22;16814;52.118;11.436;2023-02-27T01:00:05;-0.90;99.90
29571;DHT22;16814;52.118;11.436;2023-02-27T01:02:32;-1.00;99.90
29571;DHT22;16814;52.118;11.436;2023-02-27T01:04:57;-1.00;99.90
29571;DHT22;16814;52.118;11.436;2023-02-27T01:07:24;-0.90;99.90
29571;DHT22;16814;52.118;11.436;2023-02-27T01:09:50;-0.90;99.90
29571;DHT22;16814;52.118;11.436;2023-02-27T01:12:16;-0.80;99.90
29571;DHT22;16814;52.118;11.436;2023-02-27T01:14:42;-0.90;99.90
29571;DHT22;16814;52.118;11.436;2023-02-27T01:17:09;-0.70;99.90
29571;DHT22;16814;52.118;11.436;2023-02-27T01:19:34;-0.70;99.90
29571;DHT22;16814;52.118;11.436;2023-02-27T01:22:00;-0.70;99.90
29571;DHT22;16814;52.118;11.436;2023-02-27T01:24:26;-0.60;99.90
29571;DHT22;16814;52.118;11.436;2023-02-27T01:26:51;-0.40;99.90
29571;DHT22;16814;52.118;11.436;2023-02-27T01:29:17;-0.40;99.90
29571;DHT22;16814;52.118;11.436;2023-02-27T01:31:43;-0.70;99.90
29571;DHT22;16814;52.118;11.436;2023-02-27T01:34:09;-0.60;99.90
29571;DHT22;16814;52.118;11.436;2023-02-27T01:36:34;-0.60;99.90
29571;DHT22;16814;52.118;11.436;2023-02-27T01:39:00;-0.70;99.90
29571;DHT22;16814;52.118;11.436;2023-02-27T01:41:25;-0.70;99.90
29571;DHT22;16814;52.118;11.436;2023-02-27T01:44:00;-0.70;99.90
29571;DHT22;16814;52.118;11.436;2023-02-27T01:46:27;-0.70;99.90
29571;DHT22;16814;52.118;11.436;2023-02-27T01:48:56;-0.70;99.90
29571;DHT22;16814;52.118;11.436;2023-02-27T01:51:26;-0.70;99.90
29571;DHT22;16814;52.118;11.436;2023-02-27T01:53:53;-0.60;99.90
29571;DHT22;16814;52.118;11.436;2023-02-27T01:56:29;-0.60;99.90
29571;DHT22;16814;52.118;11.436;2023-02-27T01:59:02;-0.60;99.90
29571;DHT22;16814;52.118;11.436;2023-02-27T02:01:30;-0.60;99.90
29571;DHT22;16814;52.118;11.436;2023-02-27T02:06:49;-0.60;99.90
29571;DHT22;16814;52.118;11.436;2023-02-27T02:09:17;-0.70;99.90
29571;DHT22;16814;52.118;11.436;2023-02-27T02:11:45;-0.50;99.90
29571;DHT22;16814;52.118;11.436;2023-02-27T02:14:11;-0.40;99.90
29571;DHT22;16814;52.118;11.436;2023-02-27T02:27:55;-0.20;99.90
29571;DHT22;16814;52.118;11.436;2023-02-27T02:43:30;-0.30;99.90
29571;DHT22;16814;52.118;11.436;2023-02-27T02:48:31;-0.30;99.90
29571;DHT22;16814;52.118;11.436;2023-02-27T02:51:17;-0.30;99.90
29571;DHT22;16814;52.118;11.436;2023-02-27T02:56:38;-0.30;99.90
29571;DHT22;16814;52.118;11.436;2023-02-27T02:59:15;-0.30;99.90
29571;DHT22;16814;52.118;11.436;2023-02-27T03:02:01;-0.10;99.90
29571;DHT22;16814;52.118;11.436;2023-02-27T03:07:08;-0.20;99.90
29571;DHT22;16814;52.118;11.436;2023-02-27T03:10:12;-0.20;99.90
29571;DHT22;16814;52.118;11.436;2023-02-27T03:12:43;-0.20;99.90
29571;DHT22;16814;52.118;11.436;2023-02-27T03:15:15;-0.30;99.90
29571;DHT22;16814;52.118;11.436;2023-02-27T03:18:03;-0.30;99.90
29571;DHT22;16814;52.118;11.436;2023-02-27T03:20:33;-0.20;99.90
29571;DHT22;16814;52.118;11.436;2023-02-27T03:23:04;-0.10;99.90
29571;DHT22;16814;52.118;11.436;2023-02-27T03:25:32;-0.20;99.90
29571;DHT22;16814;52.118;11.436;2023-02-27T03:28:11;-0.20;99.90
29571;DHT22;16814;52.118;11.436;2023-02-27T03:33:20;-0.20;99.90
29571;DHT22;16814;52.118;11.436;2023-02-27T03:39:09;-0.30;99.90
29571;DHT22;16814;52.118;11.436;2023-02-27T03:44:03;-0.30;99.90
29571;DHT22;16814;52.118;11.436;2023-02-27T03:46:31;-0.40;99.90
29571;DHT22;16814;52.118;11.436;2023-02-27T03:48:57;-0.40;99.90
29571;DHT22;16814;52.118;11.436;2023-02-27T03:51:24;-0.60;99.90
29571;DHT22;16814;52.118;11.436;2023-02-27T03:56:39;-0.70;99.90
29571;DHT22;16814;52.118;11.436;2023-02-27T03:59:06;-0.60;99.90
29571;DHT22;16814;52.118;11.436;2023-02-27T04:01:32;-0.80;99.90
29571;DHT22;16814;52.118;11.436;2023-02-27T04:04:08;-0.90;99.90
29571;DHT22;16814;52.118;11.436;2023-02-27T04:06:37;-1.10;99.90
29571;DHT22;16814;52.118;11.436;2023-02-27T04:10:12;-1.10;99.90
29571;DHT22;16814;52.118;11.436;2023-02-27T04:12:59;-1.20;99.90
29571;DHT22;16814;52.118;11.436;2023-02-27T04:30:07;-1.40;99.90
29571;DHT22;16814;52.118;11.436;2023-02-27T04:32:45;-1.50;99.90
29571;DHT22;16814;52.118;11.436;2023-02-27T04:35:19;-1.40;99.90
29571;DHT22;16814;52.118;11.436;2023-02-27T04:37:58;-1.50;99.90
29571;DHT22;16814;52.118;11.436;2023-02-27T04:40:33;-1.60;99.90
29571;DHT22;16814;52.118;11.436;2023-02-27T04:43:03;-1.60;99.90
29571;DHT22;16814;52.118;11.436;2023-02-27T04:45:31;-1.60;99.90
29571;DHT22;16814;52.118;11.436;2023-02-27T04:48:09;-1.70;99.90
29571;DHT22;16814;52.118;11.436;2023-02-27T04:50:43;-1.60;99.90
29571;DHT22;16814;52.118;11.436;2023-02-27T04:53:36;-1.60;99.90
29571;DHT22;16814;52.118;11.436;2023-02-27T04:56:09;-1.60;99.90
29571;DHT22;16814;52.118;11.436;2023-02-27T04:58:40;-1.50;99.90
29571;DHT22;16814;52.118;11.436;2023-02-27T05:01:15;-1.40;99.90
29571;DHT22;16814;52.118;11.436;2023-02-27T05:03:46;-1.40;99.90
29571;DHT22;16814;52.118;11.436;2023-02-27T05:06:14;-1.50;99.90
29571;DHT22;16814;52.118;11.436;2023-02-27T05:09:29;-1.60;99.90
29571;DHT22;16814;52.118;11.436;2023-02-27T05:11:43;-1.60;99.90
29571;DHT22;16814;52.118;11.436;2023-02-27T05:14:32;-1.60;99.90
29571;DHT22;16814;52.118;11.436;2023-02-27T05:17:09;-1.70;99.90
29571;DHT22;16814;52.118;11.436;2023-02-27T05:19:40;-1.70;99.90
29571;DHT22;16814;52.118;11.436;2023-02-27T05:25:47;-1.60;99.90
29571;DHT22;16814;52.118;11.436;2023-02-27T05:28:40;-1.70;99.90
29571;DHT22;16814;52.118;11.436;2023-02-27T05:31:40;-1.80;99.90
29571;DHT22;16814;52.118;11.436;2023-02-27T05:34:21;-1.90;99.90
29571;DHT22;16814;52.118;11.436;2023-02-27T05:36:56;-2.00;99.90
29571;DHT22;16814;52.118;11.436;2023-02-27T05:39:27;-2.10;99.90
29571;DHT22;16814;52.118;11.436;2023-02-27T05:42:18;-2.00;99.90
29571;DHT22;16814;52.118;11.436;2023-02-27T05:44:52;-2.00;99.90
29571;DHT22;16814;52.118;11.436;2023-02-27T05:47:21;-2.00;99.90
29571;DHT22;16814;52.118;11.436;2023-02-27T05:50:12;-2.10;99.90
29571;DHT22;16814;52.118;11.436;2023-02-27T05:52:39;-2.20;99.90
29571;DHT22;16814;52.118;11.436;2023-02-27T05:55:11;-2.30;99.90
29571;DHT22;16814;52.118;11.436;2023-02-27T05:57:43;-2.30;99.90
29571;DHT22;16814;52.118;11.436;2023-02-27T06:00:14;-2.20;99.90
29571;DHT22;16814;52.118;11.436;2023-02-27T06:02:43;-2.10;99.90
29571;DHT22;16814;52.118;11.436;2023-02-27T06:05:09;-2.00;99.90
29571;DHT22;16814;52.118;11.436;2023-02-27T06:07:35;-2.10;99.90
29571;DHT22;16814;52.118;11.436;2023-02-27T06:10:02;-2.10;99.90
29571;DHT22;16814;52.118;11.436;2023-02-27T06:12:29;-2.20;99.90
29571;DHT22;16814;52.118;11.436;2023-02-27T06:14:55;-2.10;99.90
29571;DHT22;16814;52.118;11.436;2023-02-27T06:17:20;-2.10;99.90
29571;DHT22;16814;52.118;11.436;2023-02-27T06:19:47;-2.00;99.90
29571;DHT22;16814;52.118;11.436;2023-02-27T06:22:14;-2.10;99.90
29571;DHT22;16814;52.118;11.436;2023-02-27T06:24:40;-2.20;99.90
29571;DHT22;16814;52.118;11.436;2023-02-27T06:27:07;-2.10;99.90
29571;DHT22;16814;52.118;11.436;2023-02-27T06:29:53;-1.90;99.90
29571;DHT22;16814;52.118;11.436;2023-02-27T06:32:19;-1.80;99.90
29571;DHT22;16814;52.118;11.436;2023-02-27T06:34:45;-1.80;99.90
29571;DHT22;16814;52.118;11.436;2023-02-27T06:37:13;-1.80;99.90
29571;DHT22;16814;52.118;11.436;2023-02-27T06:39:39;-1.80;99.90
29571;DHT22;16814;52.118;11.436;2023-02-27T06:42:04;-1.80;99.90
29571;DHT22;16814;52.118;11.436;2023-02-27T06:44:30;-1.90;99.90
29571;DHT22;16814;52.118;11.436;2023-02-27T06:46:55;-1.90;99.90
29571;DHT22;16814;52.118;11.436;2023-02-27T06:49:21;-1.80;99.90
29571;DHT22;16814;52.118;11.436;2023-02-27T06:52:06;-1.80;99.90
29571;DHT22;16814;52.118;11.436;2023-02-27T06:54:32;-1.80;99.90
29571;DHT22;16814;52.118;11.436;2023-02-27T06:56:58;-1.80;99.90
29571;DHT22;16814;52.118;11.436;2023-02-27T06:59:24;-1.80;99.90
29571;DHT22;16814;52.118;11.436;2023-02-27T07:01:49;-1.70;99.90
29571;DHT22;16814;52.118;11.436;2023-02-27T07:04:15;-1.60;99.90
29571;DHT22;16814;52.118;11.436;2023-02-27T07:06:41;-1.50;99.90
29571;DHT22;16814;52.118;11.436;2023-02-27T07:09:06;-1.50;99.90
29571;DHT22;16814;52.118;11.436;2023-02-27T07:11:35;-1.40;99.90
29571;DHT22;16814;52.118;11.436;2023-02-27T07:14:01;-1.40;99.90
29571;DHT22;16814;52.118;11.436;2023-02-27T07:16:26;-1.30;99.90
29571;DHT22;16814;52.118;11.436;2023-02-27T07:18:52;-1.40;99.90
29571;DHT22;16814;52.118;11.436;2023-02-27T07:21:17;-1.40;99.90
29571;DHT22;16814;52.118;11.436;2023-02-27T07:23:44;-1.40;99.90
29571;DHT22;16814;52.118;11.436;2023-02-27T07:26:30;-1.40;99.90
29571;DHT22;16814;52.118;11.436;2023-02-27T07:28:55;-1.20;99.90
29571;DHT22;16814;52.118;11.436;2023-02-27T07:31:21;-1.20;99.90
29571;DHT22;16814;52.118;11.436;2023-02-27T07:33:46;-1.10;99.90
29571;DHT22;16814;52.118;11.436;2023-02-27T07:36:12;-1.10;99.90
29571;DHT22;16814;52.118;11.436;2023-02-27T07:38:38;-1.00;99.90
29571;DHT22;16814;52.118;11.436;2023-02-27T07:41:03;-0.90;99.90
29571;DHT22;16814;52.118;11.436;2023-02-27T07:43:29;-0.80;99.90
29571;DHT22;16814;52.118;11.436;2023-02-27T07:45:55;-0.60;99.90
29571;DHT22;16814;52.118;11.436;2023-02-27T07:48:20;-0.60;99.90
29571;DHT22;16814;52.118;11.436;2023-02-27T07:50:46;-0.60;99.90
29571;DHT22;16814;52.118;11.436;2023-02-27T07:53:11;-0.60;99.90
29571;DHT22;16814;52.118;11.436;2023-02-27T07:55:38;-0.40;99.90
29571;DHT22;16814;52.118;11.436;2023-02-27T07:58:03;-0.50;99.90
29571;DHT22;16814;52.118;11.436;2023-02-27T08:00:29;-0.50;99.90
29571;DHT22;16814;52.118;11.436;2023-02-27T08:02:55;-0.40;99.90
29571;DHT22;16814;52.118;11.436;2023-02-27T08:05:20;-0.20;99.90
29571;DHT22;16814;52.118;11.436;2023-02-27T08:07:46;-0.20;99.90
29571;DHT22;16814;52.118;11.436;2023-02-27T08:10:12;-0.10;99.90
29571;DHT22;16814;52.118;11.436;2023-02-27T08:12:37;0.00;99.90
29571;DHT22;16814;52.118;11.436;2023-02-27T08:15:05;0.10;99.90
29571;DHT22;16814;52.118;11.436;2023-02-27T08:17:31;0.30;99.90
29571;DHT22;16814;52.118;11.436;2023-02-27T08:19:56;0.50;99.90
29571;DHT22;16814;52.118;11.436;2023-02-27T08:22:22;0.50;99.90
29571;DHT22;16814;52.118;11.436;2023-02-27T08:24:48;0.60;99.90
29571;DHT22;16814;52.118;11.436;2023-02-27T08:27:15;0.70;99.90
29571;DHT22;16814;52.118;11.436;2023-02-27T08:29:41;0.80;99.90
29571;DHT22;16814;52.118;11.436;2023-02-27T08:32:08;0.90;99.90
29571;DHT22;16814;52.118;11.436;2023-02-27T08:34:35;0.90;99.90
29571;DHT22;16814;52.118;11.436;2023-02-27T08:37:00;0.90;99.90
29571;DHT22;16814;52.118;11.436;2023-02-27T08:39:30;0.90;99.90
29571;DHT22;16814;52.118;11.436;2023-02-27T08:41:55;1.00;99.90
29571;DHT22;16814;52.118;11.436;2023-02-27T08:44:21;1.10;99.90
29571;DHT22;16814;52.118;11.436;2023-02-27T08:46:47;1.20;99.90
29571;DHT22;16814;52.118;11.436;2023-02-27T08:49:12;1.20;99.90
29571;DHT22;16814;52.118;11.436;2023-02-27T08:51:41;1.40;99.90
29571;DHT22;16814;52.118;11.436;2023-02-27T08:54:06;1.50;99.90
29571;DHT22;16814;52.118;11.436;2023-02-27T08:56:32;1.50;99.90
29571;DHT22;16814;52.118;11.436;2023-02-27T08:58:59;1.70;99.90
29571;DHT22;16814;52.118;11.436;2023-02-27T09:01:24;2.00;99.90
29571;DHT22;16814;52.118;11.436;2023-02-27T09:03:52;2.40;99.90
29571;DHT22;16814;52.118;11.436;2023-02-27T09:06:18;2.60;99.90
29571;DHT22;16814;52.118;11.436;2023-02-27T09:08:43;2.60;99.90
29571;DHT22;16814;52.118;11.436;2023-02-27T09:11:09;2.60;99.90
29571;DHT22;16814;52.118;11.436;2023-02-27T09:13:34;2.70;99.90
29571;DHT22;16814;52.118;11.436;2023-02-27T09:16:00;2.90;99.90
29571;DHT22;16814;52.118;11.436;2023-02-27T09:18:25;3.00;99.90
29571;DHT22;16814;52.118;11.436;2023-02-27T09:20:51;3.20;99.90
29571;DHT22;16814;52.118;11.436;2023-02-27T09:23:17;3.30;99.90
29571;DHT22;16814;52.118;11.436;2023-02-27T09:25:43;3.30;99.90
29571;DHT22;16814;52.118;11.436;2023-02-27T09:28:09;3.20;99.90
29571;DHT22;16814;52.118;11.436;2023-02-27T09:30:35;3.20;99.90
29571;DHT22;16814;52.118;11.436;2023-02-27T09:33:00;3.20;99.90
29571;DHT22;16814;52.118;11.436;2023-02-27T09:35:26;3.30;99.90
29571;DHT22;16814;52.118;11.436;2023-02-27T09:37:52;3.00;99.90
29571;DHT22;16814;52.118;11.436;2023-02-27T09:40:31;2.90;99.90
29571;DHT22;16814;52.118;11.436;2023-02-27T09:43:02;2.80;99.90
29571;DHT22;16814;52.118;11.436;2023-02-27T09:45:32;2.50;99.90
29571;DHT22;16814;52.118;11.436;2023-02-27T09:50:54;2.80;99.90
29571;DHT22;16814;52.118;11.436;2023-02-27T09:53:40;2.90;99.90
29571;DHT22;16814;52.118;11.436;2023-02-27T09:56:16;2.60;99.90
29571;DHT22;16814;52.118;11.436;2023-02-27T09:59:30;2.50;99.90
29571;DHT22;16814;52.118;11.436;2023-02-27T10:02:20;2.40;99.90
29571;DHT22;16814;52.118;11.436;2023-02-27T10:05:05;2.40;99.90
29571;DHT22;16814;52.118;11.436;2023-02-27T10:08:04;2.60;99.90
29571;DHT22;16814;52.118;11.436;2023-02-27T10:10:35;2.70;99.90
29571;DHT22;16814;52.118;11.436;2023-02-27T10:15:51;2.70;99.90
29571;DHT22;16814;52.118;11.436;2023-02-27T10:18:40;3.20;99.90
29571;DHT22;16814;52.118;11.436;2023-02-27T10:21:17;3.60;99.90
29571;DHT22;16814;52.118;11.436;2023-02-27T10:24:31;3.80;99.90
29571;DHT22;16814;52.118;11.436;2023-02-27T10:26:41;3.90;99.90
29571;DHT22;16814;52.118;11.436;2023-02-27T10:29:27;4.00;99.90
29571;DHT22;16814;52.118;11.436;2023-02-27T10:32:04;3.20;99.90
29571;DHT22;16814;52.118;11.436;2023-02-27T10:34:32;2.70;99.90
29571;DHT22;16814;52.118;11.436;2023-02-27T10:37:03;2.50;99.90
29571;DHT22;16814;52.118;11.436;2023-02-27T10:39:35;2.30;99.90
29571;DHT22;16814;52.118;11.436;2023-02-27T10:42:05;2.50;99.90
29571;DHT22;16814;52.118;11.436;2023-02-27T10:44:32;2.40;99.90
29571;DHT22;16814;52.118;11.436;2023-02-27T10:46:58;2.50;99.90
29571;DHT22;16814;52.118;11.436;2023-02-27T10:49:23;2.20;99.90
29571;DHT22;16814;52.118;11.436;2023-02-27T10:52:06;2.40;99.90
29571;DHT22;16814;52.118;11.436;2023-02-27T10:54:37;2.50;99.90
29571;DHT22;16814;52.118;11.436;2023-02-27T10:57:06;2.80;99.90
29571;DHT22;16814;52.118;11.436;2023-02-27T10:59:55;2.70;99.90
29571;DHT22;16814;52.118;11.436;2023-02-27T11:02:39;2.80;99.90
29571;DHT22;16814;52.118;11.436;2023-02-27T11:05:18;2.60;99.90
29571;DHT22;16814;52.118;11.436;2023-02-27T11:07:46;2.80;99.90
29571;DHT22;16814;52.118;11.436;2023-02-27T11:12:39;3.60;99.90
29571;DHT22;16814;52.118;11.436;2023-02-27T11:17:40;4.00;99.90
29571;DHT22;16814;52.118;11.436;2023-02-27T11:20:33;3.60;99.90
29571;DHT22;16814;52.118;11.436;2023-02-27T11:25:29;4.00;99.90
29571;DHT22;16814;52.118;11.436;2023-02-27T11:28:11;4.10;99.90
29571;DHT22;16814;52.118;11.436;2023-02-27T11:30:37;4.40;99.90
29571;DHT22;16814;52.118;11.436;2023-02-27T11:33:03;4.60;99.90
29571;DHT22;16814;52.118;11.436;2023-02-27T11:35:37;4.40;99.90
29571;DHT22;16814;52.118;11.436;2023-02-27T11:38:16;4.30;99.90
29571;DHT22;16814;52.118;11.436;2023-02-27T11:40:56;4.10;99.90
29571;DHT22;16814;52.118;11.436;2023-02-27T11:43:25;4.00;99.90
29571;DHT22;16814;52.118;11.436;2023-02-27T11:45:58;4.00;99.90
29571;DHT22;16814;52.118;11.436;2023-02-27T11:48:30;4.10;99.90
29571;DHT22;16814;52.118;11.436;2023-02-27T11:56:46;3.40;99.90
29571;DHT22;16814;52.118;11.436;2023-02-27T11:59:37;3.30;99.90
29571;DHT22;16814;52.118;11.436;2023-02-27T12:04:43;3.70;99.90
29571;DHT22;16814;52.118;11.436;2023-02-27T12:07:20;3.90;99.90
29571;DHT22;16814;52.118;11.436;2023-02-27T12:12:46;4.20;99.90
29571;DHT22;16814;52.118;11.436;2023-02-27T12:18:12;4.60;99.90
29571;DHT22;16814;52.118;11.436;2023-02-27T12:20:57;5.00;99.90
29571;DHT22;16814;52.118;11.436;2023-02-27T12:23:46;4.90;99.90
29571;DHT22;16814;52.118;11.436;2023-02-27T12:26:20;4.60;99.90
29571;DHT22;16814;52.118;11.436;2023-02-27T12:29:24;4.30;99.90
29571;DHT22;16814;52.118;11.436;2023-02-27T12:32:30;4.10;99.90
29571;DHT22;16814;52.118;11.436;2023-02-27T12:35:05;3.80;99.90
29571;DHT22;16814;52.118;11.436;2023-02-27T12:37:37;3.80;99.90
29571;DHT22;16814;52.118;11.436;2023-02-27T12:40:04;3.80;99.90
29571;DHT22;16814;52.118;11.436;2023-02-27T12:45:54;3.70;99.90
29571;DHT22;16814;52.118;11.436;2023-02-27T12:51:42;4.30;99.90
29571;DHT22;16814;52.118;11.436;2023-02-27T12:54:25;4.70;99.90
29571;DHT22;16814;52.118;11.436;2023-02-27T12:56:55;4.70;99.90
29571;DHT22;16814;52.118;11.436;2023-02-27T12:59:46;4.70;99.90
29571;DHT22;16814;52.118;11.436;2023-02-27T13:02:39;4.40;99.90
29571;DHT22;16814;52.118;11.436;2023-02-27T13:11:09;4.00;99.90
29571;DHT22;16814;52.118;11.436;2023-02-27T13:13:46;3.90;99.90
29571;DHT22;16814;52.118;11.436;2023-02-27T13:26:52;3.80;99.90
29571;DHT22;16814;52.118;11.436;2023-02-27T13:29:23;3.80;99.90
29571;DHT22;16814;52.118;11.436;2023-02-27T13:32:00;3.80;99.90
29571;DHT22;16814;52.118;11.436;2023-02-27T13:34:47;3.60;99.90
29571;DHT22;16814;52.118;11.436;2023-02-27T13:37:13;3.70;99.90
29571;DHT22;16814;52.118;11.436;2023-02-27T13:45:01;3.80;99.90
29571;DHT22;16814;52.118;11.436;2023-02-27T13:47:40;4.00;99.90
29571;DHT22;16814;52.118;11.436;2023-02-27T13:52:44;4.20;99.90
29571;DHT22;16814;52.118;11.436;2023-02-27T13:55:37;4.20;99.90
29571;DHT22;16814;52.118;11.436;2023-02-27T13:58:04;4.20;99.90
29571;DHT22;16814;52.118;11.436;2023-02-27T14:00:32;4.00;99.90
29571;DHT22;16814;52.118;11.436;2023-02-27T14:03:22;4.00;99.90
29571;DHT22;16814;52.118;11.436;2023-02-27T14:05:51;3.60;99.90
29571;DHT22;16814;52.118;11.436;2023-02-27T14:13:58;3.60;99.90
29571;DHT22;16814;52.118;11.436;2023-02-27T14:22:00;3.20;99.90
29571;DHT22;16814;52.118;11.436;2023-02-27T14:27:13;3.40;99.90
29571;DHT22;16814;52.118;11.436;2023-02-27T14:29:44;3.40;99.90
29571;DHT22;16814;52.118;11.436;2023-02-27T14:32:22;3.40;99.90
29571;DHT22;16814;52.118;11.436;2023-02-27T14:34:48;3.50;99.90
29571;DHT22;16814;52.118;11.436;2023-02-27T14:37:18;3.60;99.90
29571;DHT22;16814;52.118;11.436;2023-02-27T14:39:48;3.40;99.90
29571;DHT22;16814;52.118;11.436;2023-02-27T14:44:52;3.60;99.90
29571;DHT22;16814;52.118;11.436;2023-02-27T14:49:55;3.80;99.90
29571;DHT22;16814;52.118;11.436;2023-02-27T14:52:27;4.00;99.90
29571;DHT22;16814;52.118;11.436;2023-02-27T14:55:13;4.10;99.90
29571;DHT22;16814;52.118;11.436;2023-02-27T14:57:39;4.10;99.90
29571;DHT22;16814;52.118;11.436;2023-02-27T15:03:33;4.00;99.90
29571;DHT22;16814;52.118;11.436;2023-02-27T15:06:01;4.00;99.90
29571;DHT22;16814;52.118;11.436;2023-02-27T15:08:31;3.80;99.90
29571;DHT22;16814;52.118;11.436;2023-02-27T15:10:59;3.60;99.90
29571;DHT22;16814;52.118;11.436;2023-02-27T15:13:28;3.50;99.90
29571;DHT22;16814;52.118;11.436;2023-02-27T15:16:20;3.40;99.90
29571;DHT22;16814;52.118;11.436;2023-02-27T15:19:14;3.20;99.90
29571;DHT22;16814;52.118;11.436;2023-02-27T15:21:46;3.20;99.90
29571;DHT22;16814;52.118;11.436;2023-02-27T15:26:57;3.20;99.90
29571;DHT22;16814;52.118;11.436;2023-02-27T15:29:32;2.90;99.90
29571;DHT22;16814;52.118;11.436;2023-02-27T15:32:00;2.80;99.90
29571;DHT22;16814;52.118;11.436;2023-02-27T15:34:26;2.90;99.90
29571;DHT22;16814;52.118;11.436;2023-02-27T15:36:54;2.70;99.90
29571;DHT22;16814;52.118;11.436;2023-02-27T15:39:25;2.60;99.90
29571;DHT22;16814;52.118;11.436;2023-02-27T15:41:54;2.70;99.90
29571;DHT22;16814;52.118;11.436;2023-02-27T15:44:25;2.70;99.90
29571;DHT22;16814;52.118;11.436;2023-02-27T15:46:51;2.80;99.90
29571;DHT22;16814;52.118;11.436;2023-02-27T15:49:19;2.70;99.90
29571;DHT22;16814;52.118;11.436;2023-02-27T15:51:47;2.80;99.90
29571;DHT22;16814;52.118;11.436;2023-02-27T15:54:20;2.90;99.90
29571;DHT22;16814;52.118;11.436;2023-02-27T15:56:46;2.80;99.90
29571;DHT22;16814;52.118;11.436;2023-02-27T15:59:15;2.90;99.90
29571;DHT22;16814;52.118;11.436;2023-02-27T16:01:41;3.00;99.90
29571;DHT22;16814;52.118;11.436;2023-02-27T16:04:16;3.00;99.90
29571;DHT22;16814;52.118;11.436;2023-02-27T16:06:50;3.10;99.90
29571;DHT22;16814;52.118;11.436;2023-02-27T16:12:10;2.90;99.90
29571;DHT22;16814;52.118;11.436;2023-02-27T16:14:45;2.70;99.90
29571;DHT22;16814;52.118;11.436;2023-02-27T16:17:31;2.60;99.90
29571;DHT22;16814;52.118;11.436;2023-02-27T16:19:59;2.70;99.90
29571;DHT22;16814;52.118;11.436;2023-02-27T16:22:26;2.60;99.90
29571;DHT22;16814;52.118;11.436;2023-02-27T16:24:52;2.50;99.90
29571;DHT22;16814;52.118;11.436;2023-02-27T16:27:29;2.40;99.90
29571;DHT22;16814;52.118;11.436;2023-02-27T16:29:57;2.40;99.90
29571;DHT22;16814;52.118;11.436;2023-02-27T16:32:35;2.40;99.90
29571;DHT22;16814;52.118;11.436;2023-02-27T16:35:19;2.40;99.90
29571;DHT22;16814;52.118;11.436;2023-02-27T16:37:45;2.30;99.90
29571;DHT22;16814;52.118;11.436;2023-02-27T16:40:22;2.30;99.90
29571;DHT22;16814;52.118;11.436;2023-02-27T16:42:49;2.20;99.90
29571;DHT22;16814;52.118;11.436;2023-02-27T16:45:17;2.10;99.90
29571;DHT22;16814;52.118;11.436;2023-02-27T16:47:47;2.20;99.90
29571;DHT22;16814;52.118;11.436;2023-02-27T16:52:49;2.20;99.90
29571;DHT22;16814;52.118;11.436;2023-02-27T16:55:16;2.10;99.90
29571;DHT22;16814;52.118;11.436;2023-02-27T16:57:42;2.00;99.90
29571;DHT22;16814;52.118;11.436;2023-02-27T17:00:11;2.00;99.90
29571;DHT22;16814;52.118;11.436;2023-02-27T17:02:37;1.90;99.90
29571;DHT22;16814;52.118;11.436;2023-02-27T17:05:03;1.90;99.90
29571;DHT22;16814;52.118;11.436;2023-02-27T17:07:31;2.00;99.90
29571;DHT22;16814;52.118;11.436;2023-02-27T17:09:57;1.90;99.90
29571;DHT22;16814;52.118;11.436;2023-02-27T17:12:24;1.90;99.90
29571;DHT22;16814;52.118;11.436;2023-02-27T17:14:49;1.90;99.90
29571;DHT22;16814;52.118;11.436;2023-02-27T17:17:15;1.80;99.90
29571;DHT22;16814;52.118;11.436;2023-02-27T17:19:41;1.90;99.90
29571;DHT22;16814;52.118;11.436;2023-02-27T17:22:06;1.90;99.90
29571;DHT22;16814;52.118;11.436;2023-02-27T17:24:33;1.90;99.90
29571;DHT22;16814;52.118;11.436;2023-02-27T17:26:59;1.80;99.90
29571;DHT22;16814;52.118;11.436;2023-02-27T17:29:24;1.80;99.90
29571;DHT22;16814;52.118;11.436;2023-02-27T17:31:50;2.00;99.90
29571;DHT22;16814;52.118;11.436;2023-02-27T17:34:16;1.90;99.90
29571;DHT22;16814;52.118;11.436;2023-02-27T17:36:42;1.80;99.90
29571;DHT22;16814;52.118;11.436;2023-02-27T17:39:10;1.80;99.90
29571;DHT22;16814;52.118;11.436;2023-02-27T17:41:36;1.90;99.90
29571;DHT22;16814;52.118;11.436;2023-02-27T17:44:01;2.00;99.90
29571;DHT22;16814;52.118;11.436;2023-02-27T17:46:29;1.90;99.90
29571;DHT22;16814;52.118;11.436;2023-02-27T17:48:55;1.90;99.90
29571;DHT22;16814;52.118;11.436;2023-02-27T17:51:25;1.90;99.90
29571;DHT22;16814;52.118;11.436;2023-02-27T17:53:50;1.80;99.90
29571;DHT22;16814;52.118;11.436;2023-02-27T17:56:16;1.80;99.90
29571;DHT22;16814;52.118;11.436;2023-02-27T17:58:42;1.80;99.90
29571;DHT22;16814;52.118;11.436;2023-02-27T18:01:14;1.80;99.90
29571;DHT22;16814;52.118;11.436;2023-02-27T18:03:41;1.80;99.90
29571;DHT22;16814;52.118;11.436;2023-02-27T18:06:11;1.80;99.90
29571;DHT22;16814;52.118;11.436;2023-02-27T18:08:37;1.80;99.90
29571;DHT22;16814;52.118;11.436;2023-02-27T18:11:03;1.80;99.90
29571;DHT22;16814;52.118;11.436;2023-02-27T18:13:29;1.80;99.90
29571;DHT22;16814;52.118;11.436;2023-02-27T18:15:57;1.80;99.90
29571;DHT22;16814;52.118;11.436;2023-02-27T18:18:23;1.70;99.90
29571;DHT22;16814;52.118;11.436;2023-02-27T18:21:02;1.80;99.90
29571;DHT22;16814;52.118;11.436;2023-02-27T18:23:28;1.70;99.90